sensor_id;sensor_type;location;lat;lon;timestamp;pressure;altitude;pressure_sealevel;temperature;humidity
61478;BME280;47345;52.334;10.392;2023-04-03T00:00:19;102391.48;;;1.25;74.41
61478;BME280;47345;52.334;10.392;2023-04-03T00:02:50;102396.52;;;1.27;74.50
61478;BME280;47345;52.334;10.392;2023-04-03T00:05:20;102394.20;;;1.27;74.49
61478;BME280;47345;52.334;10.392;2023-04-03T00:07:52;102398.36;;;1.27;74.54
61478;BME280;47345;52.334;10.392;2023-04-03T00:10:23;102401.61;;;1.24;74.40
61478;BME280;47345;52.334;10.392;2023-04-03T00:12:53;102404.54;;;1.21;74.25
61478;BME280;47345;52.334;10.392;2023-04-03T00:15:24;102405.52;;;1.16;74.40
61478;BME280;47345;52.334;10.392;2023-04-03T00:17:55;102408.85;;;1.12;74.41
61478;BME280;47345;52.334;10.392;2023-04-03T00:20:25;102407.65;;;1.09;74.76
61478;BME280;47345;52.334;10.392;2023-04-03T00:22:57;102406.35;;;1.07;74.54
61478;BME280;47345;52.334;10.392;2023-04-03T00:25:28;102399.45;;;1.02;74.64
61478;BME280;47345;52.334;10.392;2023-04-03T00:27:59;102398.40;;;1.02;74.81
61478;BME280;47345;52.334;10.392;2023-04-03T00:30:29;102403.44;;;0.99;74.52
61478;BME280;47345;52.334;10.392;2023-04-03T00:33:01;102404.98;;;0.95;74.87
61478;BME280;47345;52.334;10.392;2023-04-03T00:35:33;102406.75;;;0.93;75.12
61478;BME280;47345;52.334;10.392;2023-04-03T00:38:04;102407.69;;;0.89;75.20
61478;BME280;47345;52.334;10.392;2023-04-03T00:40:38;102412.84;;;0.87;75.27
61478;BME280;47345;52.334;10.392;2023-04-03T00:43:14;102416.00;;;0.86;75.26
61478;BME280;47345;52.334;10.392;2023-04-03T00:45:47;102418.98;;;0.84;75.42
61478;BME280;47345;52.334;10.392;2023-04-03T00:48:20;102420.34;;;0.83;75.47
61478;BME280;47345;52.334;10.392;2023-04-03T00:50:52;102423.35;;;0.81;75.62
61478;BME280;47345;52.334;10.392;2023-04-03T00:53:26;102422.45;;;0.78;75.65
61478;BME280;47345;52.334;10.392;2023-04-03T00:55:58;102426.66;;;0.77;75.58
61478;BME280;47345;52.334;10.392;2023-04-03T00:58:34;102432.29;;;0.76;75.65
61478;BME280;47345;52.334;10.392;2023-04-03T01:01:10;102433.09;;;0.75;75.54
61478;BME280;47345;52.334;10.392;2023-04-03T01:03:43;102433.92;;;0.72;75.65
61478;BME280;47345;52.334;10.392;2023-04-03T01:06:17;102439.61;;;0.68;75.65
61478;BME280;47345;52.334;10.392;2023-04-03T01:08:49;102437.83;;;0.62;75.61
61478;BME280;47345;52.334;10.392;2023-04-03T01:11:21;102439.87;;;0.61;76.26
61478;BME280;47345;52.334;10.392;2023-04-03T01:13:51;102445.66;;;0.61;76.20
61478;BME280;47345;52.334;10.392;2023-04-03T01:16:22;102445.05;;;0.59;76.25
61478;BME280;47345;52.334;10.392;2023-04-03T01:18:53;102444.67;;;0.56;76.21
61478;BME280;47345;52.334;10.392;2023-04-03T01:24:33;102448.58;;;0.49;76.34
61478;BME280;47345;52.334;10.392;2023-04-03T01:27:05;102450.75;;;0.49;76.47
61478;BME280;47345;52.334;10.392;2023-04-03T01:29:36;102451.13;;;0.48;76.42
61478;BME280;47345;52.334;10.392;2023-04-03T01:32:08;102450.34;;;0.49;76.44
61478;BME280;47345;52.334;10.392;2023-04-03T01:34:39;102448.17;;;0.47;76.39
61478;BME280;47345;52.334;10.392;2023-04-03T01:37:10;102454.36;;;0.42;76.55
61478;BME280;47345;52.334;10.392;2023-04-03T01:39:40;102451.41;;;0.38;76.73
61478;BME280;47345;52.334;10.392;2023-04-03T01:42:11;102447.08;;;0.35;76.85
61478;BME280;47345;52.334;10.392;2023-04-03T01:44:42;102453.11;;;0.34;76.76
61478;BME280;47345;52.334;10.392;2023-04-03T01:47:12;102449.98;;;0.29;76.81
61478;BME280;47345;52.334;10.392;2023-04-03T01:49:43;102449.62;;;0.26;76.86
61478;BME280;47345;52.334;10.392;2023-04-03T01:52:14;102447.04;;;0.25;76.97
61478;BME280;47345;52.334;10.392;2023-04-03T01:54:45;102452.91;;;0.23;76.85
61478;BME280;47345;52.334;10.392;2023-04-03T01:57:16;102456.73;;;0.22;77.08
61478;BME280;47345;52.334;10.392;2023-04-03T01:59:47;102453.13;;;0.19;76.93
61478;BME280;47345;52.334;10.392;2023-04-03T02:02:18;102453.05;;;0.14;77.06
61478;BME280;47345;52.334;10.392;2023-04-03T02:04:49;102456.94;;;0.13;77.35
61478;BME280;47345;52.334;10.392;2023-04-03T02:07:19;102457.40;;;0.14;77.30
61478;BME280;47345;52.334;10.392;2023-04-03T02:09:50;102460.50;;;0.13;77.26
61478;BME280;47345;52.334;10.392;2023-04-03T02:12:21;102456.33;;;0.11;77.39
61478;BME280;47345;52.334;10.392;2023-04-03T02:14:51;102462.45;;;0.11;77.21
61478;BME280;47345;52.334;10.392;2023-04-03T02:17:21;102461.40;;;0.10;77.39
61478;BME280;47345;52.334;10.392;2023-04-03T02:19:52;102464.45;;;0.10;77.35
61478;BME280;47345;52.334;10.392;2023-04-03T02:22:23;102459.58;;;0.11;77.49
61478;BME280;47345;52.334;10.392;2023-04-03T02:24:53;102465.98;;;0.12;77.55
61478;BME280;47345;52.334;10.392;2023-04-03T02:27:24;102464.84;;;0.10;77.40
61478;BME280;47345;52.334;10.392;2023-04-03T02:29:54;102464.91;;;0.08;77.66
61478;BME280;47345;52.334;10.392;2023-04-03T02:32:25;102464.02;;;0.06;77.59
61478;BME280;47345;52.334;10.392;2023-04-03T02:34:55;102462.61;;;0.02;77.64
61478;BME280;47345;52.334;10.392;2023-04-03T02:37:26;102471.41;;;0.02;77.72
61478;BME280;47345;52.334;10.392;2023-04-03T02:39:57;102473.19;;;-0.01;77.80
61478;BME280;47345;52.334;10.392;2023-04-03T02:42:27;102477.38;;;-0.02;77.81
61478;BME280;47345;52.334;10.392;2023-04-03T02:44:58;102472.16;;;-0.04;77.92
61478;BME280;47345;52.334;10.392;2023-04-03T02:47:29;102475.09;;;-0.08;77.88
61478;BME280;47345;52.334;10.392;2023-04-03T02:50:00;102474.30;;;-0.10;77.94
61478;BME280;47345;52.334;10.392;2023-04-03T02:52:30;102476.42;;;-0.12;78.11
61478;BME280;47345;52.334;10.392;2023-04-03T02:55:01;102477.44;;;-0.14;78.11
61478;BME280;47345;52.334;10.392;2023-04-03T02:57:32;102477.63;;;-0.14;78.22
61478;BME280;47345;52.334;10.392;2023-04-03T03:00:04;102474.88;;;-0.16;78.18
61478;BME280;47345;52.334;10.392;2023-04-03T03:02:35;102475.10;;;-0.17;78.22
61478;BME280;47345;52.334;10.392;2023-04-03T03:05:07;102474.73;;;-0.20;78.21
61478;BME280;47345;52.334;10.392;2023-04-03T03:07:37;102476.16;;;-0.23;78.31
61478;BME280;47345;52.334;10.392;2023-04-03T03:10:09;102478.73;;;-0.27;78.41
61478;BME280;47345;52.334;10.392;2023-04-03T03:12:40;102474.02;;;-0.29;78.56
61478;BME280;47345;52.334;10.392;2023-04-03T03:15:11;102475.41;;;-0.31;78.87
61478;BME280;47345;52.334;10.392;2023-04-03T03:17:42;102481.90;;;-0.32;78.85
61478;BME280;47345;52.334;10.392;2023-04-03T03:20:14;102478.93;;;-0.36;78.81
61478;BME280;47345;52.334;10.392;2023-04-03T03:22:45;102485.02;;;-0.39;78.77
61478;BME280;47345;52.334;10.392;2023-04-03T03:25:16;102482.34;;;-0.42;78.94
61478;BME280;47345;52.334;10.392;2023-04-03T03:27:46;102488.50;;;-0.43;78.92
61478;BME280;47345;52.334;10.392;2023-04-03T03:30:18;102492.95;;;-0.43;79.26
61478;BME280;47345;52.334;10.392;2023-04-03T03:32:49;102491.75;;;-0.44;79.14
61478;BME280;47345;52.334;10.392;2023-04-03T03:35:20;102494.89;;;-0.42;79.15
61478;BME280;47345;52.334;10.392;2023-04-03T03:37:51;102493.34;;;-0.43;79.02
61478;BME280;47345;52.334;10.392;2023-04-03T03:40:22;102491.33;;;-0.43;79.13
61478;BME280;47345;52.334;10.392;2023-04-03T03:42:53;102497.54;;;-0.41;79.17
61478;BME280;47345;52.334;10.392;2023-04-03T03:45:24;102497.67;;;-0.41;78.98
61478;BME280;47345;52.334;10.392;2023-04-03T03:47:55;102497.80;;;-0.43;79.09
61478;BME280;47345;52.334;10.392;2023-04-03T03:50:26;102499.86;;;-0.44;79.09
61478;BME280;47345;52.334;10.392;2023-04-03T03:52:57;102497.65;;;-0.47;79.09
61478;BME280;47345;52.334;10.392;2023-04-03T03:55:28;102501.81;;;-0.47;79.33
61478;BME280;47345;52.334;10.392;2023-04-03T03:58:00;102502.27;;;-0.49;79.31
61478;BME280;47345;52.334;10.392;2023-04-03T04:00:31;102501.06;;;-0.53;79.26
61478;BME280;47345;52.334;10.392;2023-04-03T04:03:01;102503.29;;;-0.54;79.27
61478;BME280;47345;52.334;10.392;2023-04-03T04:05:32;102500.77;;;-0.56;79.46
61478;BME280;47345;52.334;10.392;2023-04-03T04:08:04;102503.48;;;-0.57;79.46
61478;BME280;47345;52.334;10.392;2023-04-03T04:10:35;102507.20;;;-0.56;79.78
61478;BME280;47345;52.334;10.392;2023-04-03T04:13:08;102508.35;;;-0.57;79.54
61478;BME280;47345;52.334;10.392;2023-04-03T04:15:39;102506.98;;;-0.58;79.51
61478;BME280;47345;52.334;10.392;2023-04-03T04:18:10;102502.38;;;-0.60;79.31
61478;BME280;47345;52.334;10.392;2023-04-03T04:20:41;102504.69;;;-0.60;79.63
61478;BME280;47345;52.334;10.392;2023-04-03T04:23:12;102502.77;;;-0.61;79.69
61478;BME280;47345;52.334;10.392;2023-04-03T04:25:45;102503.79;;;-0.63;79.42
61478;BME280;47345;52.334;10.392;2023-04-03T04:28:16;102501.90;;;-0.64;79.56
61478;BME280;47345;52.334;10.392;2023-04-03T04:30:47;102506.44;;;-0.65;79.72
61478;BME280;47345;52.334;10.392;2023-04-03T04:33:18;102507.73;;;-0.66;79.86
61478;BME280;47345;52.334;10.392;2023-04-03T04:35:49;102504.38;;;-0.66;79.81
61478;BME280;47345;52.334;10.392;2023-04-03T04:38:21;102504.35;;;-0.66;79.69
61478;BME280;47345;52.334;10.392;2023-04-03T04:40:51;102510.93;;;-0.65;79.80
61478;BME280;47345;52.334;10.392;2023-04-03T04:43:22;102513.20;;;-0.64;79.76
61478;BME280;47345;52.334;10.392;2023-04-03T04:46:02;102519.98;;;-0.64;79.96
61478;BME280;47345;52.334;10.392;2023-04-03T04:48:34;102519.90;;;-0.65;79.90
61478;BME280;47345;52.334;10.392;2023-04-03T04:51:05;102518.19;;;-0.67;80.04
61478;BME280;47345;52.334;10.392;2023-04-03T04:53:36;102522.81;;;-0.66;79.98
61478;BME280;47345;52.334;10.392;2023-04-03T04:56:07;102521.05;;;-0.70;79.89
61478;BME280;47345;52.334;10.392;2023-04-03T04:58:38;102530.73;;;-0.69;80.13
61478;BME280;47345;52.334;10.392;2023-04-03T05:01:10;102531.55;;;-0.71;80.12
61478;BME280;47345;52.334;10.392;2023-04-03T05:03:41;102532.95;;;-0.74;80.00
61478;BME280;47345;52.334;10.392;2023-04-03T05:06:12;102535.63;;;-0.74;80.41
61478;BME280;47345;52.334;10.392;2023-04-03T05:08:43;102535.35;;;-0.72;80.38
61478;BME280;47345;52.334;10.392;2023-04-03T05:11:14;102536.64;;;-0.73;80.22
61478;BME280;47345;52.334;10.392;2023-04-03T05:13:45;102540.08;;;-0.77;80.31
61478;BME280;47345;52.334;10.392;2023-04-03T05:16:16;102538.06;;;-0.79;80.44
61478;BME280;47345;52.334;10.392;2023-04-03T05:18:47;102545.99;;;-0.80;80.68
61478;BME280;47345;52.334;10.392;2023-04-03T05:21:17;102544.09;;;-0.81;80.94
61478;BME280;47345;52.334;10.392;2023-04-03T05:23:48;102545.33;;;-0.81;80.89
61478;BME280;47345;52.334;10.392;2023-04-03T05:26:19;102548.98;;;-0.82;80.81
61478;BME280;47345;52.334;10.392;2023-04-03T05:28:51;102555.13;;;-0.83;81.07
61478;BME280;47345;52.334;10.392;2023-04-03T05:31:22;102553.52;;;-0.83;81.33
61478;BME280;47345;52.334;10.392;2023-04-03T05:33:53;102557.70;;;-0.81;81.55
61478;BME280;47345;52.334;10.392;2023-04-03T05:36:24;102559.98;;;-0.80;81.48
61478;BME280;47345;52.334;10.392;2023-04-03T05:38:55;102566.46;;;-0.77;81.63
61478;BME280;47345;52.334;10.392;2023-04-03T05:41:27;102571.23;;;-0.76;81.69
61478;BME280;47345;52.334;10.392;2023-04-03T05:43:58;102571.51;;;-0.75;81.66
61478;BME280;47345;52.334;10.392;2023-04-03T05:46:28;102569.65;;;-0.73;82.03
61478;BME280;47345;52.334;10.392;2023-04-03T05:48:59;102573.51;;;-0.72;81.94
61478;BME280;47345;52.334;10.392;2023-04-03T05:51:32;102577.73;;;-0.71;82.30
61478;BME280;47345;52.334;10.392;2023-04-03T05:54:09;102582.65;;;-0.66;82.59
61478;BME280;47345;52.334;10.392;2023-04-03T05:56:42;102583.23;;;-0.63;82.63
61478;BME280;47345;52.334;10.392;2023-04-03T05:59:13;102584.52;;;-0.61;82.63
61478;BME280;47345;52.334;10.392;2023-04-03T06:01:44;102587.06;;;-0.58;82.80
61478;BME280;47345;52.334;10.392;2023-04-03T06:04:16;102594.21;;;-0.55;82.82
61478;BME280;47345;52.334;10.392;2023-04-03T06:06:50;102592.80;;;-0.52;82.76
61478;BME280;47345;52.334;10.392;2023-04-03T06:09:23;102594.20;;;-0.52;82.85
61478;BME280;47345;52.334;10.392;2023-04-03T06:11:54;102598.79;;;-0.50;82.82
61478;BME280;47345;52.334;10.392;2023-04-03T06:14:27;102597.42;;;-0.48;82.75
61478;BME280;47345;52.334;10.392;2023-04-03T06:16:58;102601.21;;;-0.46;82.93
61478;BME280;47345;52.334;10.392;2023-04-03T06:19:29;102600.17;;;-0.43;83.16
61478;BME280;47345;52.334;10.392;2023-04-03T06:22:00;102600.34;;;-0.40;83.20
61478;BME280;47345;52.334;10.392;2023-04-03T06:24:31;102600.89;;;-0.37;83.06
61478;BME280;47345;52.334;10.392;2023-04-03T06:27:02;102601.29;;;-0.35;82.93
61478;BME280;47345;52.334;10.392;2023-04-03T06:29:33;102602.33;;;-0.31;83.23
61478;BME280;47345;52.334;10.392;2023-04-03T06:32:03;102599.88;;;-0.26;83.34
61478;BME280;47345;52.334;10.392;2023-04-03T06:34:34;102600.35;;;-0.18;83.25
61478;BME280;47345;52.334;10.392;2023-04-03T06:37:06;102603.23;;;-0.12;83.40
61478;BME280;47345;52.334;10.392;2023-04-03T06:39:36;102604.37;;;-0.07;83.21
61478;BME280;47345;52.334;10.392;2023-04-03T06:42:07;102608.38;;;-0.05;82.62
61478;BME280;47345;52.334;10.392;2023-04-03T06:44:38;102606.95;;;-0.03;82.69
61478;BME280;47345;52.334;10.392;2023-04-03T06:47:11;102609.79;;;0.01;82.58
61478;BME280;47345;52.334;10.392;2023-04-03T06:49:42;102615.36;;;0.07;82.78
61478;BME280;47345;52.334;10.392;2023-04-03T06:52:13;102615.14;;;0.11;82.91
61478;BME280;47345;52.334;10.392;2023-04-03T06:54:44;102620.00;;;0.16;82.85
61478;BME280;47345;52.334;10.392;2023-04-03T06:57:15;102628.17;;;0.21;82.58
61478;BME280;47345;52.334;10.392;2023-04-03T06:59:46;102626.68;;;0.25;82.46
61478;BME280;47345;52.334;10.392;2023-04-03T07:02:17;102627.17;;;0.32;82.69
61478;BME280;47345;52.334;10.392;2023-04-03T07:04:48;102630.20;;;0.38;82.77
61478;BME280;47345;52.334;10.392;2023-04-03T07:07:18;102632.71;;;0.44;82.44
61478;BME280;47345;52.334;10.392;2023-04-03T07:09:49;102634.58;;;0.49;82.00
61478;BME280;47345;52.334;10.392;2023-04-03T07:12:20;102635.16;;;0.53;81.54
61478;BME280;47345;52.334;10.392;2023-04-03T07:14:50;102639.33;;;0.59;81.56
61478;BME280;47345;52.334;10.392;2023-04-03T07:17:21;102642.57;;;0.65;81.38
61478;BME280;47345;52.334;10.392;2023-04-03T07:19:52;102646.36;;;0.70;81.57
61478;BME280;47345;52.334;10.392;2023-04-03T07:22:23;102645.91;;;0.77;81.36
61478;BME280;47345;52.334;10.392;2023-04-03T07:24:54;102652.30;;;0.85;81.22
61478;BME280;47345;52.334;10.392;2023-04-03T07:27:24;102651.64;;;0.93;81.33
61478;BME280;47345;52.334;10.392;2023-04-03T07:29:55;102656.37;;;1.00;80.98
61478;BME280;47345;52.334;10.392;2023-04-03T07:32:26;102654.52;;;1.07;80.83
61478;BME280;47345;52.334;10.392;2023-04-03T07:34:57;102657.70;;;1.13;79.89
61478;BME280;47345;52.334;10.392;2023-04-03T07:37:29;102657.04;;;1.18;79.72
61478;BME280;47345;52.334;10.392;2023-04-03T07:39:59;102658.07;;;1.24;80.23
61478;BME280;47345;52.334;10.392;2023-04-03T07:42:32;102667.30;;;1.32;79.69
61478;BME280;47345;52.334;10.392;2023-04-03T07:45:05;102666.03;;;1.38;79.41
61478;BME280;47345;52.334;10.392;2023-04-03T07:47:35;102665.52;;;1.45;79.40
61478;BME280;47345;52.334;10.392;2023-04-03T07:50:08;102661.70;;;1.52;79.08
61478;BME280;47345;52.334;10.392;2023-04-03T07:52:39;102662.14;;;1.59;79.55
61478;BME280;47345;52.334;10.392;2023-04-03T07:55:10;102654.88;;;1.65;79.41
61478;BME280;47345;52.334;10.392;2023-04-03T07:57:42;102655.05;;;1.74;79.38
61478;BME280;47345;52.334;10.392;2023-04-03T08:00:15;102650.56;;;1.82;78.99
61478;BME280;47345;52.334;10.392;2023-04-03T08:02:46;102649.70;;;1.89;78.13
61478;BME280;47345;52.334;10.392;2023-04-03T08:05:20;102649.92;;;1.97;78.37
61478;BME280;47345;52.334;10.392;2023-04-03T08:07:51;102649.71;;;2.05;77.92
61478;BME280;47345;52.334;10.392;2023-04-03T08:10:22;102646.48;;;2.13;76.72
61478;BME280;47345;52.334;10.392;2023-04-03T08:12:52;102646.02;;;2.20;76.67
61478;BME280;47345;52.334;10.392;2023-04-03T08:15:23;102645.34;;;2.28;76.67
61478;BME280;47345;52.334;10.392;2023-04-03T08:17:54;102641.83;;;2.34;76.08
61478;BME280;47345;52.334;10.392;2023-04-03T08:20:25;102643.38;;;2.41;75.61
61478;BME280;47345;52.334;10.392;2023-04-03T08:22:55;102647.98;;;2.47;73.51
61478;BME280;47345;52.334;10.392;2023-04-03T08:25:26;102649.01;;;2.53;74.29
61478;BME280;47345;52.334;10.392;2023-04-03T08:27:58;102643.41;;;2.61;73.08
61478;BME280;47345;52.334;10.392;2023-04-03T08:30:29;102645.00;;;2.69;72.41
61478;BME280;47345;52.334;10.392;2023-04-03T08:33:01;102642.16;;;2.76;72.25
61478;BME280;47345;52.334;10.392;2023-04-03T08:35:32;102639.36;;;2.85;71.63
61478;BME280;47345;52.334;10.392;2023-04-03T08:38:05;102639.39;;;2.92;71.77
61478;BME280;47345;52.334;10.392;2023-04-03T08:40:36;102640.84;;;3.00;71.24
61478;BME280;47345;52.334;10.392;2023-04-03T08:43:27;102642.66;;;3.05;70.34
61478;BME280;47345;52.334;10.392;2023-04-03T08:46:02;102638.61;;;3.11;69.00
61478;BME280;47345;52.334;10.392;2023-04-03T08:48:38;102633.85;;;3.17;70.08
61478;BME280;47345;52.334;10.392;2023-04-03T08:51:14;102635.45;;;3.24;68.52
61478;BME280;47345;52.334;10.392;2023-04-03T08:53:53;102634.90;;;3.32;67.59
61478;BME280;47345;52.334;10.392;2023-04-03T08:56:26;102634.42;;;3.38;66.82
61478;BME280;47345;52.334;10.392;2023-04-03T08:59:03;102637.02;;;3.43;65.86
61478;BME280;47345;52.334;10.392;2023-04-03T09:01:39;102636.06;;;3.48;66.54
61478;BME280;47345;52.334;10.392;2023-04-03T09:04:13;102632.91;;;3.52;66.70
61478;BME280;47345;52.334;10.392;2023-04-03T09:06:52;102636.77;;;3.59;67.70
61478;BME280;47345;52.334;10.392;2023-04-03T09:09:33;102635.34;;;3.63;66.29
61478;BME280;47345;52.334;10.392;2023-04-03T09:12:15;102637.27;;;3.71;66.41
61478;BME280;47345;52.334;10.392;2023-04-03T09:14:55;102631.64;;;3.79;66.10
61478;BME280;47345;52.334;10.392;2023-04-03T09:17:35;102632.73;;;3.86;65.51
61478;BME280;47345;52.334;10.392;2023-04-03T09:20:19;102630.65;;;3.94;64.03
61478;BME280;47345;52.334;10.392;2023-04-03T09:22:54;102632.26;;;4.02;63.47
61478;BME280;47345;52.334;10.392;2023-04-03T09:25:23;102628.48;;;4.11;63.45
61478;BME280;47345;52.334;10.392;2023-04-03T09:27:56;102626.23;;;4.22;62.16
61478;BME280;47345;52.334;10.392;2023-04-03T09:30:27;102632.24;;;4.33;60.70
61478;BME280;47345;52.334;10.392;2023-04-03T09:32:59;102630.13;;;4.41;58.81
61478;BME280;47345;52.334;10.392;2023-04-03T09:35:31;102628.52;;;4.51;58.50
61478;BME280;47345;52.334;10.392;2023-04-03T09:38:21;102619.48;;;4.60;58.51
61478;BME280;47345;52.334;10.392;2023-04-03T09:41:05;102623.71;;;4.68;58.48
61478;BME280;47345;52.334;10.392;2023-04-03T09:43:38;102621.79;;;4.79;57.71
61478;BME280;47345;52.334;10.392;2023-04-03T09:46:28;102621.46;;;4.87;59.91
61478;BME280;47345;52.334;10.392;2023-04-03T09:49:00;102620.81;;;4.95;60.08
61478;BME280;47345;52.334;10.392;2023-04-03T09:51:38;102616.80;;;5.07;59.09
61478;BME280;47345;52.334;10.392;2023-04-03T09:54:31;102610.57;;;5.20;58.56
61478;BME280;47345;52.334;10.392;2023-04-03T09:57:03;102608.27;;;5.32;59.11
61478;BME280;47345;52.334;10.392;2023-04-03T09:59:36;102601.83;;;5.47;58.06
61478;BME280;47345;52.334;10.392;2023-04-03T10:02:35;102609.04;;;5.60;55.22
61478;BME280;47345;52.334;10.392;2023-04-03T10:05:27;102602.15;;;5.67;54.99
61478;BME280;47345;52.334;10.392;2023-04-03T10:08:15;102596.23;;;5.73;54.51
61478;BME280;47345;52.334;10.392;2023-04-03T10:11:07;102593.90;;;5.77;55.36
61478;BME280;47345;52.334;10.392;2023-04-03T10:13:51;102591.23;;;5.87;55.67
61478;BME280;47345;52.334;10.392;2023-04-03T10:16:26;102588.86;;;5.96;55.65
61478;BME280;47345;52.334;10.392;2023-04-03T10:19:05;102587.04;;;6.03;54.32
61478;BME280;47345;52.334;10.392;2023-04-03T10:21:46;102580.34;;;6.11;54.94
61478;BME280;47345;52.334;10.392;2023-04-03T10:24:23;102582.98;;;6.21;53.34
61478;BME280;47345;52.334;10.392;2023-04-03T10:27:04;102580.46;;;6.20;51.86
61478;BME280;47345;52.334;10.392;2023-04-03T10:29:42;102575.29;;;6.17;52.57
61478;BME280;47345;52.334;10.392;2023-04-03T10:32:26;102582.45;;;6.14;52.52
61478;BME280;47345;52.334;10.392;2023-04-03T10:35:07;102576.11;;;6.16;52.92
61478;BME280;47345;52.334;10.392;2023-04-03T10:37:50;102578.61;;;6.25;54.58
61478;BME280;47345;52.334;10.392;2023-04-03T10:40:32;102575.61;;;6.30;53.75
61478;BME280;47345;52.334;10.392;2023-04-03T10:43:12;102576.60;;;6.30;53.60
61478;BME280;47345;52.334;10.392;2023-04-03T10:45:53;102580.04;;;6.26;53.92
61478;BME280;47345;52.334;10.392;2023-04-03T10:48:38;102570.33;;;6.20;54.02
61478;BME280;47345;52.334;10.392;2023-04-03T10:51:18;102571.55;;;6.14;52.52
61478;BME280;47345;52.334;10.392;2023-04-03T10:53:57;102570.37;;;6.09;53.20
61478;BME280;47345;52.334;10.392;2023-04-03T10:56:37;102567.22;;;6.08;52.54
61478;BME280;47345;52.334;10.392;2023-04-03T10:59:25;102564.33;;;6.12;52.96
61478;BME280;47345;52.334;10.392;2023-04-03T11:01:58;102556.95;;;6.16;53.93
61478;BME280;47345;52.334;10.392;2023-04-03T11:04:35;102560.34;;;6.18;50.87
61478;BME280;47345;52.334;10.392;2023-04-03T11:07:10;102553.93;;;6.19;50.45
61478;BME280;47345;52.334;10.392;2023-04-03T11:09:50;102548.88;;;6.30;51.43
61478;BME280;47345;52.334;10.392;2023-04-03T11:12:26;102546.02;;;6.41;52.77
61478;BME280;47345;52.334;10.392;2023-04-03T11:15:00;102545.30;;;6.54;52.48
61478;BME280;47345;52.334;10.392;2023-04-03T11:17:35;102540.59;;;6.56;50.45
61478;BME280;47345;52.334;10.392;2023-04-03T11:20:14;102540.30;;;6.57;50.51
61478;BME280;47345;52.334;10.392;2023-04-03T11:22:48;102534.63;;;6.57;51.42
61478;BME280;47345;52.334;10.392;2023-04-03T11:25:23;102534.63;;;6.62;51.12
61478;BME280;47345;52.334;10.392;2023-04-03T11:27:57;102533.02;;;6.64;50.47
61478;BME280;47345;52.334;10.392;2023-04-03T11:30:33;102535.64;;;6.58;47.89
61478;BME280;47345;52.334;10.392;2023-04-03T11:33:32;102531.68;;;6.52;47.93
61478;BME280;47345;52.334;10.392;2023-04-03T11:36:10;102522.91;;;6.47;47.21
61478;BME280;47345;52.334;10.392;2023-04-03T11:39:06;102522.05;;;6.50;49.81
61478;BME280;47345;52.334;10.392;2023-04-03T11:41:39;102527.17;;;6.64;50.16
61478;BME280;47345;52.334;10.392;2023-04-03T11:44:32;102524.66;;;6.76;48.84
61478;BME280;47345;52.334;10.392;2023-04-03T11:47:04;102523.17;;;6.83;48.08
61478;BME280;47345;52.334;10.392;2023-04-03T11:49:58;102518.80;;;6.85;47.64
61478;BME280;47345;52.334;10.392;2023-04-03T11:52:57;102515.02;;;6.89;48.92
61478;BME280;47345;52.334;10.392;2023-04-03T11:55:46;102520.20;;;6.93;48.18
61478;BME280;47345;52.334;10.392;2023-04-03T11:58:24;102517.63;;;6.94;47.65
61478;BME280;47345;52.334;10.392;2023-04-03T12:01:04;102515.02;;;6.91;48.76
61478;BME280;47345;52.334;10.392;2023-04-03T12:06:58;102510.89;;;6.94;47.92
61478;BME280;47345;52.334;10.392;2023-04-03T12:09:57;102506.02;;;7.02;49.50
61478;BME280;47345;52.334;10.392;2023-04-03T12:12:35;102503.88;;;7.05;46.90
61478;BME280;47345;52.334;10.392;2023-04-03T12:21:22;102503.75;;;7.09;46.74
61478;BME280;47345;52.334;10.392;2023-04-03T12:24:23;102509.33;;;7.10;49.20
61478;BME280;47345;52.334;10.392;2023-04-03T12:27:09;102512.73;;;7.10;48.80
61478;BME280;47345;52.334;10.392;2023-04-03T12:29:49;102507.38;;;7.07;49.08
61478;BME280;47345;52.334;10.392;2023-04-03T12:32:31;102506.51;;;7.04;49.28
61478;BME280;47345;52.334;10.392;2023-04-03T12:35:16;102500.52;;;7.05;50.42
61478;BME280;47345;52.334;10.392;2023-04-03T12:38:01;102501.21;;;7.07;49.07
61478;BME280;47345;52.334;10.392;2023-04-03T12:40:45;102495.79;;;7.11;48.68
61478;BME280;47345;52.334;10.392;2023-04-03T12:43:28;102487.58;;;7.15;49.57
61478;BME280;47345;52.334;10.392;2023-04-03T12:46:04;102490.61;;;7.26;47.26
61478;BME280;47345;52.334;10.392;2023-04-03T12:48:46;102484.63;;;7.30;47.13
61478;BME280;47345;52.334;10.392;2023-04-03T12:51:20;102481.61;;;7.31;48.33
61478;BME280;47345;52.334;10.392;2023-04-03T12:53:55;102482.79;;;7.30;47.23
61478;BME280;47345;52.334;10.392;2023-04-03T12:56:30;102479.10;;;7.21;45.96
61478;BME280;47345;52.334;10.392;2023-04-03T12:59:16;102474.76;;;7.09;45.62
61478;BME280;47345;52.334;10.392;2023-04-03T13:01:57;102471.88;;;7.00;46.04
61478;BME280;47345;52.334;10.392;2023-04-03T13:04:30;102471.59;;;7.01;47.49
61478;BME280;47345;52.334;10.392;2023-04-03T13:07:01;102470.77;;;7.10;47.56
61478;BME280;47345;52.334;10.392;2023-04-03T13:09:32;102474.48;;;7.22;46.65
61478;BME280;47345;52.334;10.392;2023-04-03T13:12:10;102462.79;;;7.26;46.93
61478;BME280;47345;52.334;10.392;2023-04-03T13:14:49;102460.92;;;7.33;48.43
61478;BME280;47345;52.334;10.392;2023-04-03T13:17:21;102458.77;;;7.37;47.37
61478;BME280;47345;52.334;10.392;2023-04-03T13:19:52;102461.44;;;7.37;47.58
61478;BME280;47345;52.334;10.392;2023-04-03T13:22:30;102453.73;;;7.38;49.09
61478;BME280;47345;52.334;10.392;2023-04-03T13:25:11;102463.05;;;7.42;49.31
61478;BME280;47345;52.334;10.392;2023-04-03T13:27:43;102461.65;;;7.39;48.03
61478;BME280;47345;52.334;10.392;2023-04-03T13:30:25;102453.34;;;7.34;47.78
61478;BME280;47345;52.334;10.392;2023-04-03T13:35:43;102451.16;;;7.29;47.38
61478;BME280;47345;52.334;10.392;2023-04-03T13:38:26;102446.77;;;7.29;47.17